createdAt,value
2024-01-24T00:00:16.084Z,643.00
2024-01-24T00:01:16.172Z,635.00
2024-01-24T00:02:16.165Z,644.00
2024-01-24T00:03:16.326Z,637.00
2024-01-24T00:04:16.321Z,642.00
2024-01-24T00:05:16.340Z,641.00
2024-01-24T00:58:14.994Z,642.00
2024-01-24T00:59:15.956Z,703.00
2024-01-24T01:00:16.009Z,879.00
2024-01-24T01:01:16.019Z,1084.00
2024-01-24T01:02:15.986Z,1311.00
2024-01-24T01:03:16.098Z,1422.00
2024-01-24T01:04:16.068Z,1332.00
2024-01-24T01:05:16.058Z,1235.00
2024-01-24T01:06:16.045Z,1155.00
2024-01-24T01:07:16.035Z,1094.00
2024-01-24T01:08:16.045Z,1046.00
2024-01-24T01:09:16.052Z,988.00
2024-01-24T01:10:16.048Z,956.00
2024-01-24T01:11:16.049Z,924.00
2024-01-24T01:12:16.103Z,884.00
2024-01-24T01:13:16.046Z,864.00
2024-01-24T01:14:16.056Z,839.00
2024-01-24T01:15:16.038Z,819.00
2024-01-24T01:16:16.020Z,794.00
2024-01-24T01:17:16.030Z,790.00
2024-01-24T01:18:16.039Z,767.00
2024-01-24T01:19:16.293Z,752.00
2024-01-24T01:20:16.085Z,735.00
2024-01-24T01:21:16.123Z,728.00
2024-01-24T01:22:16.190Z,721.00
2024-01-24T01:23:16.128Z,706.00
2024-01-24T01:24:16.128Z,691.00
2024-01-24T01:25:16.121Z,696.00
2024-01-24T01:26:16.141Z,688.00
2024-01-24T01:27:16.214Z,676.00
2024-01-24T01:28:16.121Z,665.00
2024-01-24T01:29:16.124Z,663.00
2024-01-24T01:30:16.217Z,663.00
2024-01-24T01:31:16.208Z,662.00
2024-01-24T01:32:16.267Z,661.00
2024-01-24T01:33:16.484Z,656.00
2024-01-24T01:34:16.472Z,657.00
2024-01-24T01:35:16.434Z,657.00
2024-01-24T01:36:22.869Z,654.00
2024-01-24T01:37:16.544Z,654.00
2024-01-24T01:38:16.491Z,654.00
2024-01-24T01:39:16.527Z,655.00
2024-01-24T01:40:16.785Z,653.00
2024-01-24T01:41:16.506Z,650.00
2024-01-24T01:42:16.598Z,649.00
2024-01-24T01:43:16.525Z,644.00
2024-01-24T01:44:16.553Z,647.00
2024-01-24T01:45:16.740Z,645.00
2024-01-24T01:46:16.586Z,648.00
2024-01-24T01:47:16.646Z,638.00
2024-01-24T01:48:16.681Z,645.00
2024-01-24T01:49:16.666Z,639.00
2024-01-24T01:50:16.571Z,642.00
2024-01-24T01:51:16.563Z,639.00
2024-01-24T01:52:16.556Z,638.00
2024-01-24T01:53:16.563Z,639.00
2024-01-24T01:54:23.297Z,639.00
2024-01-24T01:55:16.650Z,639.00
2024-01-24T01:56:16.568Z,637.00
2024-01-24T01:57:16.618Z,640.00
2024-01-24T01:58:16.582Z,638.00
2024-01-24T01:59:16.578Z,635.00
2024-01-24T02:00:16.692Z,633.00
2024-01-24T02:01:16.726Z,636.00
2024-01-24T02:02:16.633Z,632.00
2024-01-24T02:03:16.739Z,634.00
2024-01-24T02:04:16.659Z,632.00
2024-01-24T02:05:16.679Z,630.00
2024-01-24T02:06:16.984Z,629.00
2024-01-24T02:07:16.874Z,632.00
2024-01-24T02:08:16.661Z,634.00
2024-01-24T02:09:16.729Z,627.00
2024-01-24T02:10:16.721Z,629.00
2024-01-24T02:11:16.694Z,629.00
2024-01-24T02:12:16.795Z,626.00
2024-01-24T02:13:16.823Z,629.00
2024-01-24T02:14:16.854Z,625.00
2024-01-24T02:15:16.936Z,628.00
2024-01-24T02:16:20.108Z,628.00
2024-01-24T02:17:16.970Z,628.00
2024-01-24T02:18:17.145Z,628.00
2024-01-24T02:19:17.001Z,629.00
2024-01-24T02:20:16.991Z,628.00
2024-01-24T02:21:17.016Z,628.00
2024-01-24T02:22:17.043Z,624.00
2024-01-24T02:23:17.082Z,625.00
2024-01-24T02:24:17.208Z,624.00
2024-01-24T02:25:17.188Z,625.00
2024-01-24T02:26:17.261Z,624.00
2024-01-24T02:27:17.378Z,622.00
2024-01-24T02:28:17.369Z,625.00
2024-01-24T02:29:17.433Z,625.00
2024-01-24T02:30:17.616Z,623.00
2024-01-24T02:31:17.545Z,623.00
2024-01-24T02:32:17.605Z,622.00
2024-01-24T02:33:17.844Z,622.00
2024-01-24T02:34:17.895Z,623.00
2024-01-24T02:35:17.771Z,623.00
2024-01-24T02:36:17.863Z,623.00
2024-01-24T02:37:17.893Z,623.00
2024-01-24T02:38:17.953Z,622.00
2024-01-24T02:39:18.047Z,623.00
2024-01-24T02:40:18.071Z,624.00
2024-01-24T02:41:18.782Z,622.00
2024-01-24T02:42:18.229Z,624.00
2024-01-24T02:43:18.245Z,621.00
2024-01-24T02:44:18.795Z,621.00
2024-01-24T02:45:18.397Z,623.00
2024-01-24T02:46:18.444Z,623.00
2024-01-24T02:47:19.287Z,618.00
2024-01-24T02:48:18.701Z,621.00
2024-01-24T02:49:18.641Z,620.00
2024-01-24T02:50:18.666Z,623.00
2024-01-24T02:51:18.725Z,622.00
2024-01-24T02:52:18.788Z,619.00
2024-01-24T02:53:18.834Z,619.00
2024-01-24T02:54:18.929Z,621.00
2024-01-24T02:55:18.947Z,620.00
2024-01-24T02:56:19.012Z,624.00
2024-01-24T02:57:19.101Z,619.00
2024-01-24T02:58:19.138Z,621.00
2024-01-24T02:59:19.199Z,620.00
2024-01-24T03:00:19.279Z,621.00
2024-01-24T03:01:19.373Z,620.00
2024-01-24T03:02:19.398Z,618.00
2024-01-24T03:03:19.449Z,619.00
2024-01-24T03:04:19.631Z,621.00
2024-01-24T03:05:19.554Z,616.00
2024-01-24T03:06:19.706Z,619.00
2024-01-24T03:07:19.698Z,620.00
2024-01-24T03:08:19.721Z,621.00
2024-01-24T03:09:19.810Z,618.00
2024-01-24T03:10:19.831Z,617.00
2024-01-24T03:11:19.899Z,621.00
2024-01-24T03:12:19.976Z,617.00
2024-01-24T03:13:20.061Z,616.00
2024-01-24T03:14:20.071Z,617.00
2024-01-24T03:15:20.144Z,620.00
2024-01-24T03:16:20.186Z,619.00
2024-01-24T03:17:20.242Z,617.00
2024-01-24T03:18:20.398Z,617.00
2024-01-24T03:19:20.482Z,619.00
2024-01-24T03:20:20.416Z,618.00
2024-01-24T03:21:20.533Z,620.00
2024-01-24T03:22:20.577Z,618.00
2024-01-24T03:23:20.599Z,618.00
2024-01-24T03:24:20.708Z,620.00
2024-01-24T03:25:20.722Z,621.00
2024-01-24T03:26:20.784Z,616.00
2024-01-24T03:27:20.857Z,618.00
2024-01-24T03:28:20.894Z,620.00
2024-01-24T03:29:21.817Z,617.00
2024-01-24T03:30:21.060Z,623.00
2024-01-24T03:31:21.063Z,620.00
2024-01-24T03:32:21.126Z,619.00
2024-01-24T03:33:21.253Z,617.00
2024-01-24T03:34:21.348Z,618.00
2024-01-24T03:35:21.297Z,618.00
2024-01-24T03:36:21.439Z,618.00
2024-01-24T03:37:21.820Z,616.00
2024-01-24T03:38:21.497Z,619.00
2024-01-24T03:39:21.601Z,620.00
2024-01-24T03:40:21.615Z,619.00
2024-01-24T03:41:21.651Z,620.00
2024-01-24T03:42:21.766Z,619.00
2024-01-24T03:43:21.873Z,621.00
2024-01-24T03:44:21.833Z,620.00
2024-01-24T03:45:21.924Z,618.00
2024-01-24T03:46:21.945Z,621.00
2024-01-24T03:47:22.005Z,620.00
2024-01-24T03:48:22.151Z,619.00
2024-01-24T03:49:22.478Z,620.00
2024-01-24T03:50:22.179Z,617.00
2024-01-24T03:51:22.353Z,618.00
2024-01-24T03:52:22.312Z,616.00
2024-01-24T03:53:22.369Z,618.00
2024-01-24T03:54:22.479Z,619.00
2024-01-24T03:55:22.488Z,618.00
2024-01-24T03:56:22.565Z,617.00
2024-01-24T03:57:22.691Z,618.00
2024-01-24T03:58:22.673Z,616.00
2024-01-24T03:59:22.745Z,617.00
2024-01-24T04:00:22.867Z,616.00
2024-01-24T04:01:22.953Z,615.00
2024-01-24T04:02:22.925Z,619.00
2024-01-24T04:03:23.184Z,618.00
2024-01-24T04:04:23.256Z,620.00
2024-01-24T04:05:23.086Z,619.00
2024-01-24T04:06:23.336Z,619.00
2024-01-24T04:07:23.291Z,614.00
2024-01-24T04:08:23.284Z,618.00
2024-01-24T04:09:23.418Z,617.00
2024-01-24T04:10:23.411Z,617.00
2024-01-24T04:11:23.611Z,614.00
2024-01-24T04:12:23.743Z,617.00
2024-01-24T04:13:23.571Z,615.00
2024-01-24T04:14:23.646Z,617.00
2024-01-24T04:15:23.952Z,617.00
2024-01-24T04:16:23.767Z,618.00
2024-01-24T04:17:23.835Z,616.00
2024-01-24T04:18:23.959Z,616.00
2024-01-24T04:19:24.031Z,617.00
2024-01-24T04:20:24.006Z,615.00
2024-01-24T04:21:24.098Z,614.00
2024-01-24T04:22:24.137Z,617.00
2024-01-24T04:23:24.187Z,615.00
2024-01-24T04:24:24.311Z,614.00
2024-01-24T04:25:24.311Z,616.00
2024-01-24T04:26:24.413Z,615.00
2024-01-24T04:27:24.500Z,616.00
2024-01-24T04:28:24.522Z,617.00
2024-01-24T04:29:24.579Z,613.00
2024-01-24T04:30:24.679Z,613.00
2024-01-24T04:31:24.696Z,614.00
2024-01-24T04:32:24.805Z,614.00
2024-01-24T04:33:24.884Z,615.00
2024-01-24T04:34:25.110Z,617.00
2024-01-24T04:35:24.954Z,617.00
2024-01-24T04:36:25.061Z,617.00
2024-01-24T04:37:25.092Z,613.00
2024-01-24T04:38:25.161Z,611.00
2024-01-24T04:39:32.342Z,600.00
2024-01-24T04:40:33.308Z,600.00
2024-01-24T04:41:33.312Z,600.00
2024-01-24T04:42:33.294Z,600.00
2024-01-24T04:43:33.261Z,600.00
2024-01-24T04:44:33.245Z,600.00
2024-01-24T04:45:33.268Z,601.00
2024-01-24T04:46:33.229Z,601.00
2024-01-24T04:47:33.217Z,603.00
2024-01-24T04:48:33.261Z,601.00
2024-01-24T04:49:43.820Z,602.00
2024-01-24T04:50:33.291Z,603.00
2024-01-24T04:51:33.159Z,604.00
2024-01-24T04:52:33.138Z,605.00
2024-01-24T04:53:33.117Z,605.00
2024-01-24T04:54:33.112Z,605.00
2024-01-24T04:55:33.078Z,603.00
2024-01-24T04:56:33.066Z,606.00
2024-01-24T04:57:33.063Z,600.00
2024-01-24T04:58:33.018Z,601.00
2024-01-24T04:59:42.454Z,601.00
2024-01-24T05:00:33.080Z,602.00
2024-01-24T05:01:33.036Z,603.00
2024-01-24T05:02:32.965Z,603.00
2024-01-24T05:03:32.985Z,605.00
2024-01-24T05:04:32.957Z,605.00
2024-01-24T05:05:32.967Z,604.00
2024-01-24T05:06:33.038Z,607.00
2024-01-24T05:07:32.894Z,602.00
2024-01-24T05:08:32.872Z,602.00
2024-01-24T05:09:32.955Z,600.00
2024-01-24T05:10:32.838Z,607.00
2024-01-24T05:11:32.824Z,606.00
2024-01-24T05:12:32.879Z,604.00
2024-01-24T05:13:32.821Z,604.00
2024-01-24T05:14:32.775Z,605.00
2024-01-24T05:15:32.763Z,604.00
2024-01-24T05:16:32.729Z,604.00
2024-01-24T05:17:32.735Z,600.00
2024-01-24T05:18:32.939Z,606.00
2024-01-24T05:19:32.840Z,601.00
2024-01-24T05:20:32.686Z,603.00
2024-01-24T05:21:32.721Z,603.00
2024-01-24T05:22:32.661Z,603.00
2024-01-24T05:23:32.703Z,600.00
2024-01-24T05:24:32.764Z,600.00
2024-01-24T05:25:32.778Z,601.00
2024-01-24T05:26:32.802Z,604.00
2024-01-24T05:27:32.909Z,603.00
2024-01-24T05:28:32.925Z,603.00
2024-01-24T05:29:32.976Z,604.00
2024-01-24T05:30:35.838Z,602.00
2024-01-24T05:31:33.045Z,603.00
2024-01-24T05:32:33.045Z,603.00
2024-01-24T05:33:33.109Z,603.00
2024-01-24T05:34:33.029Z,606.00
2024-01-24T05:35:31.963Z,604.00
2024-01-24T05:36:32.982Z,606.00
2024-01-24T05:37:32.943Z,604.00
2024-01-24T05:38:32.924Z,602.00
2024-01-24T05:39:32.952Z,601.00
2024-01-24T05:40:32.960Z,605.00
2024-01-24T05:41:32.999Z,605.00
2024-01-24T05:42:33.057Z,605.00
2024-01-24T05:43:33.088Z,606.00
2024-01-24T05:44:33.151Z,605.00
2024-01-24T05:45:33.322Z,606.00
2024-01-24T05:46:33.296Z,602.00
2024-01-24T05:47:33.405Z,603.00
2024-01-24T05:48:33.448Z,605.00
2024-01-24T05:49:33.478Z,603.00
2024-01-24T05:50:33.458Z,603.00
2024-01-24T05:51:33.563Z,605.00
2024-01-24T05:52:33.567Z,601.00
2024-01-24T05:53:33.640Z,605.00
2024-01-24T05:54:33.725Z,604.00
2024-01-24T05:55:33.758Z,606.00
2024-01-24T05:56:33.799Z,605.00
2024-01-24T05:57:33.880Z,605.00
2024-01-24T05:58:33.910Z,606.00
2024-01-24T05:59:33.996Z,603.00
2024-01-24T06:00:34.180Z,606.00
2024-01-24T06:01:34.226Z,607.00
2024-01-24T06:02:34.093Z,606.00
2024-01-24T06:03:34.208Z,606.00
2024-01-24T06:04:34.361Z,606.00
2024-01-24T06:05:34.384Z,605.00
2024-01-24T06:06:34.376Z,604.00
2024-01-24T06:07:34.458Z,610.00
2024-01-24T06:08:34.426Z,606.00
2024-01-24T06:09:34.525Z,607.00
2024-01-24T06:10:34.550Z,607.00
2024-01-24T06:11:34.642Z,604.00
2024-01-24T06:12:34.878Z,609.00
2024-01-24T06:13:34.717Z,608.00
2024-01-24T06:14:34.759Z,608.00
2024-01-24T06:15:34.842Z,608.00
2024-01-24T06:16:34.845Z,607.00
2024-01-24T06:17:35.636Z,607.00
2024-01-24T06:18:34.961Z,605.00
2024-01-24T06:19:35.022Z,609.00
2024-01-24T06:20:34.980Z,609.00
2024-01-24T06:21:35.024Z,607.00
2024-01-24T06:22:35.478Z,610.00
2024-01-24T06:23:35.052Z,611.00
2024-01-24T06:24:35.143Z,611.00
2024-01-24T06:25:35.147Z,614.00
2024-01-24T06:26:35.194Z,614.00
2024-01-24T06:27:35.508Z,615.00
2024-01-24T06:28:35.317Z,614.00
2024-01-24T06:30:15.913Z,617.00
2024-01-24T06:30:35.391Z,617.00
2024-01-24T06:31:35.409Z,618.00
2024-01-24T06:32:35.523Z,619.00
2024-01-24T06:33:35.417Z,620.00
2024-01-24T06:34:35.372Z,621.00
2024-01-24T06:35:35.266Z,625.00
2024-01-24T06:36:35.317Z,620.00
2024-01-24T06:37:35.237Z,617.00
2024-01-24T06:38:35.488Z,615.00
2024-01-24T06:39:35.253Z,617.00
2024-01-24T06:40:35.196Z,618.00
2024-01-24T06:41:35.156Z,624.00
2024-01-24T06:42:35.509Z,628.00
2024-01-24T06:43:35.128Z,631.00
2024-01-24T06:44:35.112Z,635.00
2024-01-24T06:45:35.177Z,636.00
2024-01-24T06:46:35.072Z,640.00
2024-01-24T06:47:35.559Z,646.00
2024-01-24T06:48:35.592Z,648.00
2024-01-24T06:49:35.613Z,649.00
2024-01-24T06:50:35.512Z,666.00
2024-01-24T06:51:35.058Z,676.00
2024-01-24T06:52:35.016Z,685.00
2024-01-24T06:53:34.999Z,699.00
2024-01-24T06:54:35.074Z,712.00
2024-01-24T06:55:34.943Z,720.00
2024-01-24T06:56:34.922Z,732.00
2024-01-24T06:57:35.910Z,729.00
2024-01-24T06:58:34.993Z,746.00
2024-01-24T06:59:35.549Z,746.00
2024-01-24T07:00:35.053Z,750.00
2024-01-24T07:01:35.172Z,753.00
2024-01-24T07:02:35.979Z,764.00
2024-01-24T07:03:34.880Z,775.00
2024-01-24T07:04:35.202Z,777.00
2024-01-24T07:05:35.066Z,798.00
2024-01-24T07:06:34.786Z,810.00
2024-01-24T07:07:35.000Z,821.00
2024-01-24T07:08:34.727Z,841.00
2024-01-24T07:09:34.774Z,845.00
2024-01-24T07:10:36.019Z,870.00
2024-01-24T07:11:34.864Z,892.00
2024-01-24T07:12:34.905Z,911.00
2024-01-24T07:13:34.966Z,936.00
2024-01-24T07:14:35.634Z,965.00
2024-01-24T07:15:36.005Z,990.00
2024-01-24T07:16:38.242Z,1008.00
2024-01-24T07:17:38.282Z,1009.00
2024-01-24T07:18:35.093Z,1010.00
2024-01-24T07:19:35.088Z,1021.00
2024-01-24T07:20:34.909Z,1043.00
2024-01-24T07:21:34.968Z,1084.00
2024-01-24T07:22:35.039Z,1141.00
2024-01-24T07:23:34.807Z,1159.00
2024-01-24T07:24:34.893Z,1177.00
2024-01-24T07:25:34.755Z,1179.00
2024-01-24T07:26:34.730Z,1191.00
2024-01-24T07:27:36.005Z,1194.00
2024-01-24T07:28:34.720Z,1198.00
2024-01-24T07:29:34.724Z,1188.00
2024-01-24T07:30:34.909Z,1196.00
2024-01-24T07:31:34.732Z,1185.00
2024-01-24T07:32:34.776Z,1183.00
2024-01-24T07:33:34.876Z,1178.00
2024-01-24T07:34:34.966Z,1175.00
2024-01-24T07:35:35.013Z,1177.00
2024-01-24T07:36:34.899Z,1182.00
2024-01-24T07:37:34.922Z,1184.00
2024-01-24T07:38:35.013Z,1188.00
2024-01-24T07:39:34.950Z,1194.00
2024-01-24T07:40:34.951Z,1208.00
2024-01-24T07:41:34.965Z,1218.00
2024-01-24T07:42:35.778Z,1219.00
2024-01-24T07:43:35.001Z,1226.00
2024-01-24T07:44:35.005Z,1232.00
2024-01-24T07:45:35.156Z,1236.00
2024-01-24T07:46:35.035Z,1249.00
2024-01-24T07:47:35.561Z,1248.00
2024-01-24T07:48:35.122Z,1263.00
2024-01-24T07:49:38.438Z,1267.00
2024-01-24T07:50:35.025Z,1267.00
2024-01-24T07:51:34.988Z,1270.00
2024-01-24T07:52:40.755Z,1278.00
2024-01-24T07:53:35.940Z,1268.00
2024-01-24T07:54:34.951Z,1269.00
2024-01-24T07:55:41.691Z,1278.00
2024-01-24T07:56:34.872Z,1269.00
2024-01-24T07:57:34.907Z,1266.00
2024-01-24T07:58:34.841Z,1208.00
2024-01-24T07:59:34.783Z,1161.00
2024-01-24T08:00:34.875Z,1130.00
2024-01-24T08:01:35.131Z,1096.00
2024-01-24T08:02:34.744Z,1085.00
2024-01-24T08:03:34.837Z,1070.00
2024-01-24T08:04:34.733Z,1066.00
2024-01-24T08:05:34.681Z,1065.00
2024-01-24T08:06:37.948Z,1066.00
2024-01-24T08:07:34.682Z,1066.00
2024-01-24T08:08:34.623Z,1063.00
2024-01-24T08:09:34.647Z,1066.00
2024-01-24T08:10:34.563Z,1071.00
2024-01-24T08:11:34.541Z,1083.00
2024-01-24T08:12:35.035Z,1107.00
2024-01-24T08:13:34.512Z,1131.00
2024-01-24T08:14:35.974Z,1107.00
2024-01-24T08:15:34.534Z,1081.00
2024-01-24T08:16:35.386Z,1024.00
2024-01-24T08:17:34.505Z,963.00
2024-01-24T08:18:34.635Z,906.00
2024-01-24T08:19:34.613Z,879.00
2024-01-24T08:20:34.539Z,847.00
2024-01-24T08:21:34.484Z,835.00
2024-01-24T08:22:34.549Z,819.00
2024-01-24T08:23:42.619Z,812.00
2024-01-24T08:24:35.505Z,812.00
2024-01-24T08:25:34.499Z,813.00
2024-01-24T08:26:34.480Z,815.00
2024-01-24T08:27:34.618Z,824.00
2024-01-24T08:28:34.428Z,847.00
2024-01-24T08:29:37.629Z,874.00
2024-01-24T08:30:34.445Z,815.00
2024-01-24T08:31:34.375Z,830.00
2024-01-24T08:32:34.660Z,862.00
2024-01-24T08:33:34.510Z,915.00
2024-01-24T08:34:34.656Z,993.00
2024-01-24T08:35:34.287Z,1019.00
2024-01-24T08:36:34.331Z,1037.00
2024-01-24T08:37:34.540Z,1057.00
2024-01-24T08:38:34.224Z,1073.00
2024-01-24T08:39:34.817Z,1088.00
2024-01-24T08:40:34.205Z,1108.00
2024-01-24T08:41:34.272Z,1110.00
2024-01-24T08:42:34.289Z,1112.00
2024-01-24T08:43:34.310Z,1111.00
2024-01-24T08:44:34.609Z,1122.00
2024-01-24T08:45:34.386Z,1120.00
2024-01-24T08:46:34.386Z,1120.00
2024-01-24T08:47:35.439Z,1122.00
2024-01-24T08:48:34.618Z,1127.00
2024-01-24T08:49:34.594Z,1126.00
2024-01-24T08:50:34.475Z,1139.00
2024-01-24T08:51:37.739Z,1212.00
2024-01-24T08:52:41.879Z,1214.00
2024-01-24T08:53:34.458Z,1216.00
2024-01-24T08:54:36.450Z,1235.00
2024-01-24T08:55:34.545Z,1219.00
2024-01-24T08:56:34.412Z,1243.00
2024-01-24T08:57:34.420Z,1287.00
2024-01-24T08:58:34.366Z,1351.00
2024-01-24T08:59:34.553Z,1431.00
2024-01-24T09:00:34.480Z,1434.00
2024-01-24T09:01:41.799Z,1422.00
2024-01-24T09:02:34.557Z,1422.00
2024-01-24T09:03:34.417Z,1411.00
2024-01-24T09:04:34.385Z,1389.00
2024-01-24T09:05:34.301Z,1382.00
2024-01-24T09:06:34.363Z,1382.00
2024-01-24T09:07:34.591Z,1372.00
2024-01-24T09:08:34.226Z,1364.00
2024-01-24T09:09:34.386Z,1354.00
2024-01-24T09:10:34.218Z,1343.00
2024-01-24T09:11:38.425Z,1338.00
2024-01-24T09:12:34.188Z,1338.00
2024-01-24T09:13:34.201Z,1339.00
2024-01-24T09:14:34.199Z,1321.00
2024-01-24T09:15:35.016Z,1305.00
2024-01-24T09:16:34.200Z,1301.00
2024-01-24T09:17:35.083Z,1283.00
2024-01-24T09:18:34.894Z,1272.00
2024-01-24T09:19:34.239Z,1255.00
2024-01-24T09:20:34.191Z,1248.00
2024-01-24T09:21:34.589Z,1249.00
2024-01-24T09:22:34.208Z,1233.00
2024-01-24T09:23:34.226Z,1236.00
2024-01-24T09:24:34.318Z,1232.00
2024-01-24T09:25:34.556Z,1237.00
2024-01-24T09:26:34.389Z,1242.00
2024-01-24T09:27:34.594Z,1246.00
2024-01-24T09:28:34.470Z,1249.00
2024-01-24T09:29:33.471Z,1249.00
2024-01-24T09:30:34.489Z,1252.00
2024-01-24T09:31:34.501Z,1258.00
2024-01-24T09:32:34.430Z,1265.00
2024-01-24T09:33:36.169Z,1287.00
2024-01-24T09:34:34.651Z,1251.00
2024-01-24T09:35:34.637Z,1257.00
2024-01-24T09:36:34.320Z,1267.00
2024-01-24T09:37:34.569Z,1278.00
2024-01-24T09:38:34.581Z,1292.00
2024-01-24T09:39:34.587Z,1259.00
2024-01-24T09:40:34.637Z,1244.00
2024-01-24T09:41:34.282Z,1198.00
2024-01-24T09:42:34.260Z,1167.00
2024-01-24T09:43:34.243Z,1144.00
2024-01-24T09:44:34.367Z,1134.00
2024-01-24T09:45:34.709Z,1123.00
2024-01-24T09:46:34.228Z,1109.00
2024-01-24T09:47:34.622Z,1101.00
2024-01-24T09:48:34.268Z,1103.00
2024-01-24T09:49:35.448Z,1106.00
2024-01-24T09:50:34.148Z,1110.00
2024-01-24T09:51:34.163Z,1106.00
2024-01-24T09:52:34.579Z,1114.00
2024-01-24T09:53:34.181Z,1126.00
2024-01-24T09:54:34.361Z,1134.00
2024-01-24T09:55:34.223Z,1163.00
2024-01-24T09:56:34.344Z,1183.00
2024-01-24T09:57:34.703Z,1189.00
2024-01-24T09:58:34.265Z,1206.00
2024-01-24T09:59:34.266Z,1209.00
2024-01-24T10:00:34.282Z,1220.00
2024-01-24T10:01:34.407Z,1223.00
2024-01-24T10:02:34.571Z,1229.00
2024-01-24T10:03:37.674Z,1230.00
2024-01-24T10:04:34.657Z,1231.00
2024-01-24T10:05:34.392Z,1230.00
2024-01-24T10:07:34.656Z,1217.00
2024-01-24T10:08:34.246Z,1208.00
2024-01-24T10:09:34.262Z,1190.00
2024-01-24T10:10:34.216Z,1182.00
2024-01-24T10:11:34.180Z,1178.00
2024-01-24T10:12:34.252Z,1165.00
2024-01-24T10:13:34.173Z,1154.00
2024-01-24T10:14:34.165Z,1141.00
2024-01-24T10:15:34.229Z,1140.00
2024-01-24T10:16:34.162Z,1153.00
2024-01-24T10:17:34.190Z,1162.00
2024-01-24T10:18:34.256Z,1166.00
2024-01-24T10:19:34.249Z,1168.00
2024-01-24T10:20:34.232Z,1172.00
2024-01-24T10:21:34.435Z,1158.00
2024-01-24T10:22:34.747Z,1146.00
2024-01-24T10:23:34.400Z,1137.00
2024-01-24T10:24:34.490Z,1125.00
2024-01-24T10:25:34.525Z,1118.00
2024-01-24T10:26:34.552Z,1104.00
2024-01-24T10:27:38.291Z,1095.00
2024-01-24T10:28:34.567Z,1095.00
2024-01-24T10:29:34.570Z,1088.00
2024-01-24T10:30:34.692Z,1072.00
2024-01-24T10:31:37.755Z,1043.00
2024-01-24T10:32:34.625Z,1027.00
2024-01-24T10:33:34.672Z,1009.00
2024-01-24T10:34:34.654Z,1010.00
2024-01-24T10:35:34.588Z,1082.00
2024-01-24T10:36:35.105Z,1079.00
2024-01-24T10:37:35.403Z,1069.00
2024-01-24T10:38:34.583Z,1045.00
2024-01-24T10:39:42.019Z,1020.00
2024-01-24T10:40:34.560Z,1020.00
2024-01-24T10:41:34.583Z,1020.00
2024-01-24T10:42:34.621Z,997.00
2024-01-24T10:43:34.610Z,991.00
2024-01-24T10:44:34.660Z,991.00
2024-01-24T10:45:34.623Z,995.00
2024-01-24T10:46:34.681Z,998.00
2024-01-24T10:47:34.631Z,1000.00
2024-01-24T10:48:34.765Z,993.00
2024-01-24T10:49:34.728Z,994.00
2024-01-24T10:50:34.674Z,990.00
2024-01-24T10:51:35.029Z,988.00
2024-01-24T10:52:35.106Z,982.00
2024-01-24T10:53:34.742Z,982.00
2024-01-24T10:54:34.772Z,987.00
2024-01-24T10:55:34.896Z,976.00
2024-01-24T10:56:34.774Z,969.00
2024-01-24T10:57:34.856Z,959.00
2024-01-24T10:58:35.094Z,956.00
2024-01-24T10:59:34.866Z,948.00
2024-01-24T11:00:34.952Z,938.00
2024-01-24T11:01:34.925Z,933.00
2024-01-24T11:02:34.972Z,922.00
2024-01-24T11:03:35.229Z,916.00
2024-01-24T11:04:35.092Z,917.00
2024-01-24T11:05:35.154Z,936.00
2024-01-24T11:06:35.263Z,944.00
2024-01-24T11:07:35.156Z,968.00
2024-01-24T11:08:42.962Z,979.00
2024-01-24T11:09:35.261Z,980.00
2024-01-24T11:10:35.188Z,989.00
2024-01-24T11:11:35.162Z,1004.00
2024-01-24T11:12:35.178Z,1031.00
2024-01-24T11:13:35.630Z,1063.00
2024-01-24T11:14:35.401Z,1074.00
2024-01-24T11:15:35.120Z,1087.00
2024-01-24T11:16:35.076Z,1092.00
2024-01-24T11:17:35.131Z,1099.00
2024-01-24T11:18:35.258Z,1108.00
2024-01-24T11:19:35.337Z,1121.00
2024-01-24T11:20:34.992Z,1140.00
2024-01-24T11:21:36.740Z,1157.00
2024-01-24T11:22:35.219Z,1174.00
2024-01-24T11:23:35.104Z,1187.00
2024-01-24T11:24:35.013Z,1196.00
2024-01-24T11:25:34.895Z,1201.00
2024-01-24T11:26:34.851Z,1208.00
2024-01-24T11:28:34.107Z,1221.00
2024-01-24T11:29:34.828Z,1223.00
2024-01-24T11:30:34.806Z,1226.00
2024-01-24T11:31:34.791Z,1227.00
2024-01-24T11:32:34.745Z,1241.00
2024-01-24T11:33:35.243Z,1266.00
2024-01-24T11:34:34.752Z,1271.00
2024-01-24T11:35:37.843Z,1284.00
2024-01-24T11:36:34.597Z,1284.00
2024-01-24T11:37:34.600Z,1284.00
2024-01-24T11:38:37.845Z,1271.00
2024-01-24T11:39:34.607Z,1262.00
2024-01-24T11:40:34.564Z,1243.00
2024-01-24T11:41:34.615Z,1223.00
2024-01-24T11:42:34.514Z,1205.00
2024-01-24T11:43:37.553Z,1181.00
2024-01-24T11:44:34.447Z,1179.00
2024-01-24T11:45:34.459Z,1168.00
2024-01-24T11:46:34.757Z,1125.00
2024-01-24T11:47:34.426Z,1071.00
2024-01-24T11:48:34.589Z,1031.00
2024-01-24T11:49:34.459Z,1020.00
2024-01-24T11:50:34.402Z,999.00
2024-01-24T11:51:34.401Z,976.00
2024-01-24T11:52:34.618Z,979.00
2024-01-24T11:53:34.374Z,974.00
2024-01-24T11:54:34.346Z,960.00
2024-01-24T11:55:34.318Z,948.00
2024-01-24T11:56:34.369Z,944.00
2024-01-24T11:57:34.671Z,935.00
2024-01-24T11:58:34.290Z,920.00
2024-01-24T11:59:34.289Z,917.00
2024-01-24T12:00:34.287Z,905.00
2024-01-24T12:01:34.688Z,898.00
2024-01-24T12:02:34.621Z,892.00
2024-01-24T12:03:34.319Z,897.00
2024-01-24T12:04:34.298Z,899.00
2024-01-24T12:05:34.210Z,893.00
2024-01-24T12:06:34.335Z,894.00
2024-01-24T12:07:34.681Z,892.00
2024-01-24T12:08:34.162Z,897.00
2024-01-24T12:09:34.182Z,894.00
2024-01-24T12:10:34.129Z,901.00
2024-01-24T12:11:34.642Z,905.00
2024-01-24T12:12:34.151Z,910.00
2024-01-24T12:13:34.067Z,907.00
2024-01-24T12:14:34.043Z,907.00
2024-01-24T12:15:34.038Z,918.00
2024-01-24T12:16:34.013Z,915.00
2024-01-24T12:17:34.140Z,923.00
2024-01-24T12:18:34.376Z,925.00
2024-01-24T12:19:34.226Z,917.00
2024-01-24T12:20:34.177Z,923.00
2024-01-24T12:21:34.264Z,923.00
2024-01-24T12:22:34.630Z,921.00
2024-01-24T12:23:34.636Z,915.00
2024-01-24T12:24:34.331Z,899.00
2024-01-24T12:25:34.398Z,886.00
2024-01-24T12:26:34.363Z,874.00
2024-01-24T12:27:34.351Z,866.00
2024-01-24T12:28:34.371Z,857.00
2024-01-24T12:29:34.406Z,845.00
2024-01-24T12:30:34.562Z,842.00
2024-01-24T12:31:34.538Z,836.00
2024-01-24T12:32:34.609Z,834.00
2024-01-24T12:33:36.468Z,826.00
2024-01-24T12:34:34.733Z,841.00
2024-01-24T12:35:34.583Z,850.00
2024-01-24T12:36:34.590Z,851.00
2024-01-24T12:37:34.642Z,844.00
2024-01-24T12:38:34.535Z,852.00
2024-01-24T12:39:34.536Z,850.00
2024-01-24T12:40:34.483Z,853.00
2024-01-24T12:41:34.510Z,859.00
2024-01-24T12:42:35.417Z,861.00
2024-01-24T12:43:34.733Z,866.00
2024-01-24T12:44:34.430Z,874.00
2024-01-24T12:45:34.452Z,873.00
2024-01-24T12:46:34.411Z,880.00
2024-01-24T12:47:34.373Z,883.00
2024-01-24T12:48:34.474Z,892.00
2024-01-24T12:49:34.414Z,898.00
2024-01-24T12:50:34.575Z,902.00
2024-01-24T12:51:34.300Z,915.00
2024-01-24T12:52:34.259Z,922.00
2024-01-24T12:53:34.426Z,942.00
2024-01-24T12:54:34.263Z,946.00
2024-01-24T12:55:34.167Z,949.00
2024-01-24T12:56:34.148Z,973.00
2024-01-24T12:57:35.910Z,985.00
2024-01-24T12:58:34.388Z,996.00
2024-01-24T12:59:34.065Z,1016.00
2024-01-24T13:00:34.159Z,1018.00
2024-01-24T13:01:34.048Z,1024.00
2024-01-24T13:02:33.988Z,1032.00
2024-01-24T13:03:34.110Z,1029.00
2024-01-24T13:04:34.073Z,1034.00
2024-01-24T13:05:39.752Z,1034.00
2024-01-24T13:06:33.986Z,1034.00
2024-01-24T13:07:34.024Z,1037.00
2024-01-24T13:08:34.287Z,1035.00
2024-01-24T13:09:37.187Z,1035.00
2024-01-24T13:10:34.327Z,1035.00
2024-01-24T13:11:33.815Z,1035.00
2024-01-24T13:12:33.858Z,1035.00
2024-01-24T13:13:33.748Z,1035.00
2024-01-24T13:14:33.704Z,1033.00